Terminal Aerodrome Forecast
Issued by NWS North Platte, NE

Home | Current Version | Previous Version | Text Only | Print | Product List | Glossary On
Versions: 1 2 3 4 5 6 7 8 9 10 11 12 13 14 15 16 17 18 19 20 21 22 23 24
823
FTUS43 KLBF 130552 AAA
TAFLBF
TAF AMD
KLBF 130552Z 1306/1406 12010KT P6SM OVC006
     FM130800 15010KT 3SM BR OVC003
     FM131600 17012G18KT P6SM OVC008
     FM131800 18013G20KT P6SM OVC015=

USA.gov is the U.S. government's official web portal to all federal, state and local government web resources and services.